Time;durP1;ratioP1;P1;durP2;ratioP2;P2;SDS_P1;SDS_P2;PMS_P1;PMS_P2;Temp;Humidity;BMP_temperature;BMP_pressure;BME280_temperature;BME280_humidity;BME280_pressure;Samples;Min_cycle;Max_cycle;Signal;HPM_P1;HPM_P2
2021/06/22 00:01:45;;;;;;;8.98;4.50;;;16.10;61.10;;;;;;5066126;28;20064;-73
2021/06/22 00:04:11;;;;;;;5.53;4.63;;;16.10;61.10;;;;;;5065601;28;20035;-74
2021/06/22 00:06:37;;;;;;;7.20;5.10;;;16.00;61.00;;;;;;5067686;28;20032;-74
2021/06/22 00:09:03;;;;;;;6.47;4.32;;;16.00;61.10;;;;;;5069595;28;20055;-76
2021/06/22 00:11:29;;;;;;;9.25;5.50;;;16.00;61.10;;;;;;5068446;28;20464;-73
2021/06/22 00:13:55;;;;;;;7.80;5.13;;;16.00;61.20;;;;;;5051466;28;20063;-75
2021/06/22 00:16:21;;;;;;;6.57;4.70;;;16.00;61.20;;;;;;5068438;28;20052;-73
2021/06/22 00:18:47;;;;;;;6.07;4.47;;;15.90;61.10;;;;;;5068236;28;20496;-73
2021/06/22 00:21:14;;;;;;;5.38;4.88;;;15.90;61.10;;;;;;5068975;28;20070;-73
2021/06/22 00:23:40;;;;;;;7.35;5.22;;;15.90;61.70;;;;;;5067798;28;20033;-73
2021/06/22 00:26:06;;;;;;;5.90;5.40;;;15.90;61.30;;;;;;5069151;28;20025;-73
2021/06/22 00:28:32;;;;;;;5.13;4.50;;;15.80;61.10;;;;;;5069003;28;20051;-74
2021/06/22 00:30:58;;;;;;;6.70;5.43;;;15.80;61.20;;;;;;5067776;28;20046;-73
2021/06/22 00:33:24;;;;;;;5.90;5.32;;;15.80;61.20;;;;;;5050911;28;20056;-73
2021/06/22 00:35:50;;;;;;;6.72;5.20;;;15.80;61.20;;;;;;5069669;28;20434;-73
2021/06/22 00:38:16;;;;;;;6.15;5.55;;;15.80;61.30;;;;;;5068874;28;20020;-72
2021/06/22 00:40:42;;;;;;;7.10;5.07;;;15.80;61.40;;;;;;5067757;28;20029;-73
2021/06/22 00:43:08;;;;;;;5.88;5.38;;;15.70;61.20;;;;;;5067513;28;20056;-73
2021/06/22 00:45:35;;;;;;;7.07;5.72;;;15.70;61.30;;;;;;5067511;28;20119;-74
2021/06/22 00:48:05;;;;;;;5.95;5.43;;;15.70;61.30;;;;;;5067508;28;20474;-74
2021/06/22 00:50:33;;;;;;;7.07;5.60;;;15.70;61.40;;;;;;5067280;28;20048;-72
2021/06/22 00:53:02;;;;;;;7.47;5.80;;;15.70;61.40;;;;;;5067468;28;20496;-72
2021/06/22 00:55:29;;;;;;;6.68;6.07;;;15.70;61.40;;;;;;5067282;28;20025;-74
2021/06/22 00:58:02;;;;;;;8.93;6.00;;;15.70;61.50;;;;;;5067470;28;20283;-73
2021/06/22 01:00:28;;;;;;;7.20;6.32;;;15.70;61.60;;;;;;5067119;28;20024;-73
2021/06/22 01:02:56;;;;;;;7.10;6.35;;;15.70;61.50;;;;;;5050880;28;20040;-73
2021/06/22 01:05:25;;;;;;;8.32;6.85;;;15.60;61.90;;;;;;5068840;28;20519;-74
2021/06/22 01:07:58;;;;;;;8.98;6.25;;;15.60;61.40;;;;;;5066871;28;20465;-72
2021/06/22 01:10:25;;;;;;;7.95;5.93;;;15.60;61.40;;;;;;5068083;28;20069;-73
2021/06/22 01:12:53;;;;;;;6.90;6.20;;;15.60;61.50;;;;;;5068401;28;20060;-73
2021/06/22 01:15:27;;;;;;;6.72;5.80;;;15.60;61.60;;;;;;5067243;28;20480;-72
2021/06/22 01:17:58;;;;;;;9.48;7.10;;;15.60;61.60;;;;;;5067962;28;20118;-73
2021/06/22 01:20:32;;;;;;;7.78;5.95;;;15.50;61.40;;;;;;5066989;28;20028;-73
2021/06/22 01:23:02;;;;;;;7.30;6.60;;;15.50;61.40;;;;;;5067085;28;20033;-72
2021/06/22 01:25:29;;;;;;;6.53;5.78;;;15.50;61.40;;;;;;5068155;28;20039;-73
2021/06/22 01:27:57;;;;;;;8.90;6.68;;;15.60;61.60;;;;;;5066598;28;20112;-72
2021/06/22 01:30:25;;;;;;;9.02;6.72;;;15.50;61.40;;;;;;5049246;28;20398;-72
2021/06/22 01:33:00;;;;;;;7.60;6.22;;;15.50;61.50;;;;;;5054923;28;20403;-73
2021/06/22 01:35:30;;;;;;;8.40;6.38;;;15.50;61.50;;;;;;5074301;28;20431;-73
2021/06/22 01:37:59;;;;;;;6.80;6.18;;;15.50;61.50;;;;;;5053706;28;20028;-72
2021/06/22 01:40:42;;;;;;;6.93;6.32;;;15.40;61.40;;;;;;5054243;28;20423;-73
2021/06/22 01:43:08;;;;;;;7.97;7.20;;;15.40;61.50;;;;;;5048320;28;20557;-74
2021/06/22 01:45:35;;;;;;;7.20;6.60;;;15.40;61.50;;;;;;5051464;28;20028;-75
2021/06/22 01:48:01;;;;;;;8.13;6.80;;;15.40;61.50;;;;;;5060392;28;20076;-74
2021/06/22 01:50:28;;;;;;;8.10;7.30;;;15.40;61.60;;;;;;5070891;28;20029;-73
2021/06/22 01:52:53;;;;;;;9.25;6.93;;;15.40;61.60;;;;;;5052553;28;20111;-73
2021/06/22 01:55:37;;;;;;;8.07;7.28;;;15.40;61.60;;;;;;5052365;28;20047;-73
2021/06/22 01:58:11;;;;;;;7.22;6.53;;;15.30;61.50;;;;;;5059833;28;20036;-73
2021/06/22 02:00:59;;;;;;;8.20;6.85;;;15.30;61.60;;;;;;5040146;28;20516;-73
2021/06/22 02:03:37;;;;;;;8.07;6.63;;;15.30;61.60;;;;;;5056075;28;20116;-74
2021/06/22 02:06:04;;;;;;;11.23;8.02;;;15.30;61.60;;;;;;5072087;28;20115;-73
2021/06/22 02:08:34;;;;;;;7.95;7.15;;;15.20;61.40;;;;;;5070735;28;20388;-75
2021/06/22 02:11:00;;;;;;;8.80;7.90;;;15.20;61.40;;;;;;5070336;28;20031;-72
2021/06/22 02:13:32;;;;;;;8.90;7.93;;;15.20;61.50;;;;;;5069706;28;20494;-74
2021/06/22 02:16:07;;;;;;;8.30;7.47;;;15.20;61.60;;;;;;5055498;28;20082;-73
2021/06/22 02:18:33;;;;;;;8.75;7.63;;;15.20;61.60;;;;;;5070492;28;20123;-73
2021/06/22 02:21:00;;;;;;;8.60;7.55;;;15.10;61.50;;;;;;5070618;28;20032;-73
2021/06/22 02:23:27;;;;;;;8.80;7.53;;;15.10;61.50;;;;;;5070362;28;20492;-74
2021/06/22 02:25:54;;;;;;;7.88;7.18;;;15.10;61.60;;;;;;5070389;28;20414;-73
2021/06/22 02:28:24;;;;;;;10.10;8.15;;;15.10;61.60;;;;;;5053239;28;20115;-73
2021/06/22 02:30:53;;;;;;;8.05;7.32;;;15.10;61.60;;;;;;5053398;28;20063;-73
2021/06/22 02:33:21;;;;;;;9.52;6.90;;;15.00;61.50;;;;;;5070161;28;20047;-74
2021/06/22 02:35:51;;;;;;;9.10;7.88;;;15.00;61.60;;;;;;5070487;28;20689;-73
2021/06/22 02:38:18;;;;;;;8.70;7.35;;;15.00;61.60;;;;;;5071326;28;20029;-73
2021/06/22 02:40:49;;;;;;;8.85;7.65;;;15.00;61.60;;;;;;5071565;28;20028;-74
2021/06/22 02:43:19;;;;;;;10.10;7.75;;;15.00;61.70;;;;;;5053945;28;20479;-74
2021/06/22 02:45:47;;;;;;;7.63;6.93;;;15.00;61.70;;;;;;5070005;28;20029;-73
2021/06/22 02:48:19;;;;;;;11.18;8.00;;;15.00;61.70;;;;;;5071230;28;20044;-73
2021/06/22 02:50:45;;;;;;;8.18;7.47;;;15.00;61.80;;;;;;5053101;28;20028;-73
2021/06/22 02:53:13;;;;;;;8.57;7.78;;;14.90;61.70;;;;;;5070135;28;20032;-73
2021/06/22 02:55:41;;;;;;;7.95;6.95;;;14.90;61.70;;;;;;5069961;28;20391;-73
2021/06/22 02:58:10;;;;;;;10.02;8.75;;;14.90;61.80;;;;;;5070959;28;20035;-73
2021/06/22 03:00:38;;;;;;;8.75;7.95;;;14.90;61.80;;;;;;5070019;28;20021;-74
2021/06/22 03:03:08;;;;;;;9.98;8.95;;;14.80;61.60;;;;;;5069835;28;20085;-73
2021/06/22 03:05:39;;;;;;;8.70;7.47;;;14.80;61.70;;;;;;5054121;28;20036;-73
2021/06/22 03:08:07;;;;;;;8.82;8.02;;;14.80;61.70;;;;;;5069678;28;20682;-73
2021/06/22 03:10:36;;;;;;;9.02;8.13;;;14.80;61.80;;;;;;5069467;28;20031;-73
2021/06/22 03:13:02;;;;;;;8.27;7.57;;;14.80;61.90;;;;;;5070646;28;20033;-73
2021/06/22 03:15:31;;;;;;;9.65;8.15;;;14.70;61.70;;;;;;5070958;28;20025;-73
2021/06/22 03:17:58;;;;;;;9.00;8.10;;;14.80;61.90;;;;;;5053260;28;20082;-73
2021/06/22 03:20:31;;;;;;;10.20;8.15;;;14.70;61.70;;;;;;5069782;28;20028;-72
2021/06/22 03:22:58;;;;;;;7.90;7.20;;;14.70;61.70;;;;;;5052913;28;20394;-73
2021/06/22 03:25:24;;;;;;;8.60;7.78;;;14.70;61.80;;;;;;5069520;28;20032;-73
2021/06/22 03:28:01;;;;;;;8.35;7.45;;;14.70;61.90;;;;;;5069589;28;20127;-74
2021/06/22 03:30:47;;;;;;;10.13;8.05;;;14.70;61.90;;;;;;5069700;28;20039;-73
2021/06/22 03:33:13;;;;;;;7.78;6.97;;;14.70;61.90;;;;;;5052674;28;20145;-73
2021/06/22 03:35:39;;;;;;;9.07;8.13;;;14.60;61.80;;;;;;5069781;28;20442;-73
2021/06/22 03:38:05;;;;;;;7.90;7.20;;;14.60;61.80;;;;;;5070594;28;20029;-73
2021/06/22 03:40:32;;;;;;;10.05;7.72;;;14.70;62.00;;;;;;5071327;28;20118;-75
2021/06/22 03:42:59;;;;;;;8.05;7.25;;;14.60;61.90;;;;;;5074694;28;20020;-73
2021/06/22 03:45:27;;;;;;;9.88;8.40;;;14.60;61.90;;;;;;5073654;28;20039;-75
2021/06/22 03:47:54;;;;;;;7.95;7.15;;;14.50;61.70;;;;;;5057028;28;20040;-75
2021/06/22 03:50:20;;;;;;;7.95;7.25;;;14.60;61.90;;;;;;5074683;28;20066;-74
2021/06/22 03:52:48;;;;;;;8.25;7.45;;;14.50;61.80;;;;;;5073206;28;20028;-80
2021/06/22 03:55:27;;;;;;;14.77;8.30;;;14.50;61.90;;;;;;5074460;28;20025;-79
2021/06/22 03:58:14;;;;;;;8.32;7.53;;;14.50;61.90;;;;;;5073679;28;20115;-81
2021/06/22 04:00:51;;;;;;;8.18;7.38;;;14.50;61.90;;;;;;5073270;28;20067;-80
2021/06/22 04:03:23;;;;;;;10.25;7.93;;;14.50;61.90;;;;;;5073191;28;20108;-80
2021/06/22 04:06:07;;;;;;;8.55;7.72;;;14.50;62.00;;;;;;5073179;28;20021;-74
2021/06/22 04:08:33;;;;;;;8.23;7.43;;;14.50;62.00;;;;;;5073293;28;20058;-80
2021/06/22 04:11:04;;;;;;;7.65;6.93;;;14.50;62.00;;;;;;5073044;28;20106;-74
2021/06/22 04:13:32;;;;;;;8.65;7.30;;;14.50;62.10;;;;;;5056586;28;20475;-78
2021/06/22 04:15:59;;;;;;;10.68;7.40;;;14.40;61.90;;;;;;5072863;28;20361;-75
2021/06/22 04:18:26;;;;;;;9.40;7.70;;;14.40;61.90;;;;;;5072891;28;20040;-78
2021/06/22 04:20:54;;;;;;;8.98;7.28;;;14.40;61.90;;;;;;5056572;28;20452;-78
2021/06/22 04:23:24;;;;;;;8.15;7.35;;;14.40;61.90;;;;;;5072810;28;20040;-80
2021/06/22 04:25:52;;;;;;;9.90;7.85;;;14.40;61.90;;;;;;5074132;28;20035;-79
2021/06/22 04:28:19;;;;;;;8.23;7.20;;;14.40;61.90;;;;;;5072677;28;20039;-80
2021/06/22 04:30:45;;;;;;;8.68;7.88;;;14.40;61.90;;;;;;5072371;28;20032;-80
2021/06/22 04:33:12;;;;;;;9.27;7.28;;;14.40;61.90;;;;;;5073821;28;20082;-80
2021/06/22 04:35:38;;;;;;;7.70;7.00;;;14.40;62.00;;;;;;5073824;28;20032;-76
2021/06/22 04:38:05;;;;;;;7.90;7.10;;;14.40;62.50;;;;;;5055988;28;20025;-81
2021/06/22 04:40:32;;;;;;;9.38;7.28;;;14.40;62.00;;;;;;5073430;28;20036;-79
2021/06/22 04:42:59;;;;;;;8.15;7.35;;;14.40;62.10;;;;;;5072540;28;20031;-79
2021/06/22 04:45:25;;;;;;;9.40;8.00;;;14.40;62.10;;;;;;5073452;28;20028;-78
2021/06/22 04:47:51;;;;;;;8.13;7.32;;;14.40;62.00;;;;;;5066147;28;20075;-78
2021/06/22 04:50:17;;;;;;;9.80;7.78;;;14.40;62.10;;;;;;5060193;28;20491;-80
2021/06/22 04:52:43;;;;;;;8.35;7.18;;;14.40;62.60;;;;;;5062265;28;20040;-80
2021/06/22 04:55:13;;;;;;;9.13;7.28;;;14.40;62.00;;;;;;5067089;28;20032;-80
2021/06/22 04:57:44;;;;;;;8.30;7.20;;;14.40;62.00;;;;;;5068425;28;20448;-75
2021/06/22 05:00:12;;;;;;;8.00;7.20;;;14.40;62.00;;;;;;5069941;28;20029;-78
2021/06/22 05:02:40;;;;;;;7.80;6.90;;;14.40;62.10;;;;;;5065567;28;20070;-79
2021/06/22 05:05:07;;;;;;;12.73;8.38;;;14.40;62.00;;;;;;5051654;28;20028;-75
2021/06/22 05:07:33;;;;;;;10.35;8.15;;;14.40;62.00;;;;;;5061880;28;20036;-80
2021/06/22 05:10:00;;;;;;;8.00;7.28;;;14.40;62.00;;;;;;5058458;28;20374;-75
2021/06/22 05:12:26;;;;;;;8.25;7.47;;;14.40;62.00;;;;;;5056439;28;20090;-80
2021/06/22 05:14:53;;;;;;;8.45;7.50;;;14.40;62.00;;;;;;5051311;28;20033;-80
2021/06/22 05:17:19;;;;;;;10.82;8.10;;;14.40;62.00;;;;;;5056271;28;20032;-77
2021/06/22 05:19:45;;;;;;;8.30;7.30;;;14.40;61.90;;;;;;5067623;28;20083;-75
2021/06/22 05:22:12;;;;;;;9.32;8.43;;;14.50;62.10;;;;;;5061135;28;20055;-78
2021/06/22 05:24:38;;;;;;;9.00;8.20;;;14.50;62.10;;;;;;5068342;28;20036;-76
2021/06/22 05:27:05;;;;;;;8.98;8.07;;;14.50;62.00;;;;;;5065107;28;20021;-77
2021/06/22 05:29:31;;;;;;;12.38;8.88;;;14.50;62.00;;;;;;5050449;28;20045;-80
2021/06/22 05:31:57;;;;;;;8.30;7.50;;;14.50;62.00;;;;;;5063188;28;20091;-87
2021/06/22 05:34:23;;;;;;;9.13;8.23;;;14.60;62.10;;;;;;5055648;28;20029;-79
2021/06/22 05:36:49;;;;;;;8.68;7.97;;;14.60;62.10;;;;;;5047085;28;20036;-76
2021/06/22 05:39:15;;;;;;;9.23;8.07;;;14.60;62.10;;;;;;5050210;28;20039;-79
2021/06/22 05:41:41;;;;;;;11.02;9.93;;;14.70;62.20;;;;;;5057376;28;20029;-74
2021/06/22 05:44:08;;;;;;;12.93;11.18;;;14.70;62.20;;;;;;5067437;28;20036;-74
2021/06/22 05:46:34;;;;;;;12.35;11.07;;;14.80;62.20;;;;;;5067724;28;20517;-72
2021/06/22 05:49:00;;;;;;;15.50;10.23;;;14.80;62.00;;;;;;5054602;28;20037;-74
2021/06/22 05:51:26;;;;;;;16.85;11.35;;;14.80;61.90;;;;;;5056392;28;20021;-72
2021/06/22 05:53:52;;;;;;;12.27;10.27;;;14.90;61.90;;;;;;5058409;28;20035;-72
2021/06/22 05:56:19;;;;;;;13.23;10.68;;;14.90;61.70;;;;;;5066991;28;20029;-73
2021/06/22 05:58:45;;;;;;;11.55;10.10;;;15.00;61.70;;;;;;5067287;28;20387;-73
2021/06/22 06:01:10;;;;;;;14.15;11.25;;;15.00;61.50;;;;;;5049484;28;20029;-74
2021/06/22 06:03:37;;;;;;;15.02;10.57;;;15.00;61.40;;;;;;5049909;28;20115;-73
2021/06/22 06:06:06;;;;;;;11.35;10.25;;;15.00;61.10;;;;;;5067135;28;20029;-73
2021/06/22 06:08:33;;;;;;;13.95;10.55;;;15.10;61.10;;;;;;5049357;28;20116;-73
2021/06/22 06:11:03;;;;;;;12.48;9.77;;;15.10;60.80;;;;;;5065792;28;20113;-75
2021/06/22 06:13:37;;;;;;;15.27;11.18;;;15.10;60.70;;;;;;5066113;28;20028;-75
2021/06/22 06:16:04;;;;;;;13.02;10.02;;;15.10;60.40;;;;;;5048387;28;20389;-86
2021/06/22 06:18:31;;;;;;;11.88;10.73;;;15.10;60.30;;;;;;5061566;28;20114;-77
2021/06/22 06:20:58;;;;;;;13.52;10.63;;;15.20;60.40;;;;;;5060842;28;20187;-73
2021/06/22 06:23:28;;;;;;;11.02;9.73;;;15.20;60.20;;;;;;5048432;28;20401;-73
2021/06/22 06:25:55;;;;;;;11.30;10.25;;;15.20;60.10;;;;;;5032502;28;20036;-78
2021/06/22 06:28:32;;;;;;;14.43;10.73;;;15.30;60.10;;;;;;5060115;28;20040;-77
2021/06/22 06:30:58;;;;;;;15.00;10.48;;;15.30;59.90;;;;;;5055930;28;20029;-76
2021/06/22 06:33:24;;;;;;;14.10;10.18;;;15.40;59.90;;;;;;5059323;28;20442;-78
2021/06/22 06:35:53;;;;;;;10.63;9.52;;;15.40;59.70;;;;;;5048724;28;20079;-75
2021/06/22 06:38:19;;;;;;;10.93;9.80;;;15.50;59.70;;;;;;5060810;28;20029;-73
2021/06/22 06:40:45;;;;;;;12.25;9.95;;;15.50;59.50;;;;;;5063357;28;20112;-74
2021/06/22 06:43:11;;;;;;;11.98;10.07;;;15.50;59.30;;;;;;5063859;28;20163;-72
2021/06/22 06:45:37;;;;;;;9.82;8.88;;;15.60;59.40;;;;;;5063634;28;20343;-72
2021/06/22 06:48:04;;;;;;;12.10;10.45;;;15.70;59.40;;;;;;5064484;28;20052;-72
2021/06/22 06:50:30;;;;;;;9.85;8.73;;;15.70;59.10;;;;;;5064554;28;20032;-72
2021/06/22 06:52:56;;;;;;;12.20;9.40;;;15.80;59.20;;;;;;5046605;28;20076;-73
2021/06/22 06:55:29;;;;;;;12.35;9.25;;;15.80;59.00;;;;;;5064962;28;20029;-73
2021/06/22 06:58:03;;;;;;;14.73;9.55;;;15.90;59.10;;;;;;5065104;28;20031;-75
2021/06/22 07:00:33;;;;;;;10.20;8.77;;;16.00;59.00;;;;;;5064759;28;20044;-72
2021/06/22 07:03:00;;;;;;;10.95;9.07;;;16.10;59.00;;;;;;5058583;28;20135;-72
2021/06/22 07:05:27;;;;;;;10.35;8.85;;;16.20;59.10;;;;;;5060443;28;20059;-72
2021/06/22 07:07:53;;;;;;;10.85;9.38;;;16.30;59.30;;;;;;5060450;28;20029;-73
2021/06/22 07:10:19;;;;;;;11.45;9.30;;;16.40;59.60;;;;;;5044567;28;20036;-79
2021/06/22 07:12:46;;;;;;;10.02;9.02;;;16.50;60.00;;;;;;5028457;28;20036;-73
2021/06/22 07:15:13;;;;;;;9.90;8.90;;;16.70;60.40;;;;;;5028642;28;20386;-73
2021/06/22 07:17:39;;;;;;;11.90;9.00;;;16.90;60.80;;;;;;5044867;28;20071;-78
2021/06/22 07:20:06;;;;;;;11.60;8.70;;;17.10;61.10;;;;;;5045989;28;20029;-74
2021/06/22 07:22:33;;;;;;;12.90;8.40;;;17.30;61.30;;;;;;5045974;28;20476;-73
2021/06/22 07:24:59;;;;;;;12.73;9.30;;;17.60;61.50;;;;;;5044907;28;20043;-73
2021/06/22 07:27:27;;;;;;;9.23;7.97;;;17.70;61.40;;;;;;5029001;28;20043;-82
2021/06/22 07:29:53;;;;;;;9.98;8.10;;;17.90;61.40;;;;;;5066568;28;20499;-73
2021/06/22 07:32:19;;;;;;;8.88;7.97;;;18.20;61.60;;;;;;5065916;28;20072;-72
2021/06/22 07:34:45;;;;;;;9.52;8.15;;;18.40;61.60;;;;;;5065319;28;20113;-72
2021/06/22 07:37:11;;;;;;;8.63;7.72;;;18.70;61.70;;;;;;5065756;28;20033;-73
2021/06/22 07:39:37;;;;;;;8.30;7.10;;;19.10;61.80;;;;;;5048180;28;20375;-73
2021/06/22 07:42:03;;;;;;;10.52;7.18;;;19.60;61.80;;;;;;5064971;28;20506;-72
2021/06/22 07:44:29;;;;;;;7.22;6.50;;;20.10;61.60;;;;;;5065577;28;20025;-76
2021/06/22 07:46:55;;;;;;;7.95;6.15;;;20.50;61.30;;;;;;5064423;28;20032;-73
2021/06/22 07:49:21;;;;;;;8.07;6.07;;;20.90;60.80;;;;;;5051869;28;20041;-74
2021/06/22 07:51:47;;;;;;;11.77;6.13;;;21.30;60.30;;;;;;5056600;28;20033;-74
2021/06/22 07:54:14;;;;;;;6.57;5.93;;;21.70;60.00;;;;;;5064388;28;20484;-76
2021/06/22 07:56:40;;;;;;;11.00;5.93;;;22.10;59.60;;;;;;5064653;28;20464;-73
2021/06/22 07:59:06;;;;;;;6.70;6.00;;;22.40;59.10;;;;;;5066010;28;20372;-74
2021/06/22 08:01:33;;;;;;;5.18;4.75;;;22.70;58.60;;;;;;5059283;28;20036;-72
2021/06/22 08:03:59;;;;;;;11.73;5.57;;;23.10;58.50;;;;;;5059017;28;20036;-73
2021/06/22 08:06:25;;;;;;;8.73;5.28;;;23.50;58.30;;;;;;5063913;28;20123;-72
2021/06/22 08:08:51;;;;;;;7.65;4.60;;;23.90;57.90;;;;;;5064465;28;20404;-72
2021/06/22 08:11:17;;;;;;;7.97;5.15;;;24.30;57.50;;;;;;5065574;28;20336;-74
2021/06/22 08:13:43;;;;;;;9.13;5.07;;;24.70;57.20;;;;;;5065206;28;20400;-72
2021/06/22 08:16:09;;;;;;;7.32;4.82;;;25.20;56.70;;;;;;5065830;28;20029;-72
2021/06/22 08:18:35;;;;;;;12.68;5.03;;;25.70;55.90;;;;;;5057625;28;20060;-72
2021/06/22 08:21:03;;;;;;;7.60;4.75;;;26.30;54.80;;;;;;5062569;28;20484;-73
2021/06/22 08:23:30;;;;;;;8.38;4.65;;;26.70;53.80;;;;;;5053983;28;20099;-73
2021/06/22 08:25:56;;;;;;;7.43;4.22;;;27.10;52.90;;;;;;5045451;28;20083;-73
2021/06/22 08:28:23;;;;;;;5.97;4.30;;;27.50;51.80;;;;;;5056187;28;20115;-77
2021/06/22 08:30:50;;;;;;;6.57;3.83;;;28.00;50.80;;;;;;5068890;28;20386;-73
2021/06/22 08:33:17;;;;;;;5.50;3.85;;;28.40;49.90;;;;;;5069032;28;20518;-73
2021/06/22 08:35:43;;;;;;;7.53;3.88;;;28.80;49.00;;;;;;5069465;28;20036;-73
2021/06/22 08:38:11;;;;;;;4.38;3.53;;;29.30;48.20;;;;;;5069147;28;20033;-73
2021/06/22 08:40:43;;;;;;;7.82;4.05;;;29.70;47.20;;;;;;5068972;28;20040;-72
2021/06/22 08:43:12;;;;;;;5.03;3.70;;;30.00;46.40;;;;;;5068652;28;20028;-74
2021/06/22 08:45:39;;;;;;;5.63;3.88;;;30.20;45.80;;;;;;5069397;28;20042;-74
2021/06/22 08:48:09;;;;;;;6.05;3.75;;;30.20;45.50;;;;;;5067684;28;20127;-75
2021/06/22 08:50:36;;;;;;;5.72;4.00;;;30.20;45.10;;;;;;5069332;28;20500;-77
2021/06/22 08:53:03;;;;;;;4.18;3.08;;;30.10;44.80;;;;;;5068931;28;20098;-75
2021/06/22 08:55:29;;;;;;;7.35;3.95;;;29.70;45.10;;;;;;5069131;28;20067;-78
2021/06/22 08:57:57;;;;;;;3.83;3.00;;;29.20;45.60;;;;;;5064501;28;20393;-76
2021/06/22 09:00:23;;;;;;;7.43;4.13;;;28.90;45.80;;;;;;5047574;28;20052;-78
2021/06/22 09:03:14;;;;;;;4.50;3.50;;;28.90;45.50;;;;;;5047789;28;20140;-75
2021/06/22 09:05:42;;;;;;;5.32;3.80;;;28.60;45.50;;;;;;5048794;28;20037;-74
2021/06/22 09:08:28;;;;;;;4.30;3.30;;;28.40;45.70;;;;;;5047527;28;20041;-75
2021/06/22 09:11:13;;;;;;;5.13;3.38;;;28.00;45.80;;;;;;5048724;28;20115;-73
2021/06/22 09:13:42;;;;;;;3.90;3.50;;;27.60;46.60;;;;;;5047038;28;20071;-76
2021/06/22 09:16:16;;;;;;;4.82;3.63;;;27.40;47.30;;;;;;5046625;28;20462;-75
2021/06/22 09:18:44;;;;;;;5.03;3.67;;;27.30;47.30;;;;;;5031008;28;20131;-72
2021/06/22 09:21:14;;;;;;;6.32;3.97;;;27.40;47.40;;;;;;5048256;28;20041;-73
2021/06/22 09:23:42;;;;;;;5.72;3.30;;;27.70;47.10;;;;;;5061171;28;20036;-76
2021/06/22 09:26:10;;;;;;;3.78;3.03;;;28.00;46.70;;;;;;5068444;28;20059;-72
2021/06/22 09:28:36;;;;;;;5.72;3.53;;;28.20;46.20;;;;;;5067976;28;20438;-73
2021/06/22 09:31:05;;;;;;;9.35;3.45;;;28.50;45.90;;;;;;5068096;28;20032;-73
2021/06/22 09:33:53;;;;;;;7.40;3.30;;;28.30;44.30;;;;;;5066960;28;20046;-73
2021/06/22 09:36:28;;;;;;;3.45;2.70;;;27.80;43.60;;;;;;5067154;28;20036;-73
2021/06/22 09:39:05;;;;;;;5.07;3.30;;;27.50;43.30;;;;;;5067046;28;20032;-73
2021/06/22 09:41:41;;;;;;;4.88;2.90;;;27.20;43.10;;;;;;5067432;28;20029;-73
2021/06/22 09:44:08;;;;;;;3.75;3.03;;;27.00;42.80;;;;;;5068239;28;20028;-73
2021/06/22 09:46:55;;;;;;;3.95;3.28;;;26.80;42.90;;;;;;5068123;28;20175;-74
2021/06/22 09:49:28;;;;;;;6.00;3.75;;;26.60;42.70;;;;;;5067356;28;20147;-73
2021/06/22 09:52:02;;;;;;;4.50;3.17;;;26.40;42.60;;;;;;5066500;28;20123;-73
2021/06/22 09:54:56;;;;;;;5.72;4.00;;;26.30;42.70;;;;;;5037657;28;20036;-73
2021/06/22 09:57:25;;;;;;;9.20;3.47;;;25.90;42.20;;;;;;5045616;28;20036;-73
2021/06/22 09:59:56;;;;;;;4.32;3.80;;;25.60;42.70;;;;;;5028699;28;20281;-73
2021/06/22 10:02:26;;;;;;;7.13;3.45;;;25.20;42.80;;;;;;5049661;28;20040;-73
2021/06/22 10:04:54;;;;;;;4.80;3.53;;;24.80;42.80;;;;;;5066351;28;20111;-74
2021/06/22 10:07:23;;;;;;;6.00;3.70;;;24.50;42.60;;;;;;5066307;28;20101;-74
2021/06/22 10:09:58;;;;;;;5.88;3.60;;;24.30;42.60;;;;;;5046178;28;20041;-73
2021/06/22 10:12:29;;;;;;;3.92;3.47;;;24.40;42.90;;;;;;5064854;28;20469;-76
2021/06/22 10:15:00;;;;;;;5.13;3.47;;;24.60;43.20;;;;;;5067054;28;20459;-75
2021/06/22 10:17:29;;;;;;;7.07;4.40;;;24.80;43.40;;;;;;5066058;28;20403;-73
2021/06/22 10:19:57;;;;;;;10.32;4.40;;;25.10;43.50;;;;;;5067065;28;20031;-75
2021/06/22 10:22:27;;;;;;;4.88;3.53;;;25.40;43.50;;;;;;5065854;28;20028;-72
2021/06/22 10:24:56;;;;;;;6.50;3.50;;;25.70;44.00;;;;;;5066591;28;20082;-74
2021/06/22 10:27:24;;;;;;;5.78;3.47;;;25.80;43.30;;;;;;5066932;28;20507;-74
2021/06/22 10:29:53;;;;;;;5.97;3.20;;;25.70;42.90;;;;;;5066660;28;20040;-74
2021/06/22 10:32:20;;;;;;;3.97;3.42;;;25.50;42.40;;;;;;5064597;28;20063;-74
2021/06/22 10:34:48;;;;;;;7.47;4.07;;;25.20;42.20;;;;;;5048610;28;20040;-81
2021/06/22 10:37:35;;;;;;;4.43;4.03;;;24.90;42.00;;;;;;5064894;28;20024;-73
2021/06/22 10:40:01;;;;;;;7.93;4.32;;;24.60;41.70;;;;;;5045232;28;20128;-74
2021/06/22 10:42:42;;;;;;;5.82;3.75;;;24.50;42.20;;;;;;5047607;28;20526;-74
2021/06/22 10:45:10;;;;;;;5.32;3.55;;;24.50;41.90;;;;;;5054295;28;20079;-74
2021/06/22 10:47:41;;;;;;;7.30;4.20;;;24.60;42.20;;;;;;5055888;28;20044;-74
2021/06/22 10:50:22;;;;;;;5.40;4.60;;;24.50;41.60;;;;;;5064381;28;20029;-73
2021/06/22 10:52:51;;;;;;;7.40;4.55;;;24.40;41.40;;;;;;5065080;28;20035;-75
2021/06/22 10:55:20;;;;;;;5.13;4.00;;;24.20;41.50;;;;;;5066375;28;20024;-74
2021/06/22 10:58:13;;;;;;;6.10;4.20;;;24.10;41.40;;;;;;5062298;28;20039;-76
2021/06/22 11:00:50;;;;;;;5.77;3.97;;;24.30;41.40;;;;;;5046388;28;20120;-73
2021/06/22 11:03:21;;;;;;;6.20;4.72;;;24.50;41.80;;;;;;5046224;28;20028;-75
2021/06/22 11:05:48;;;;;;;8.52;4.35;;;24.60;41.30;;;;;;5027935;28;20071;-73
2021/06/22 11:08:16;;;;;;;4.75;4.13;;;24.60;41.50;;;;;;5049324;28;20047;-74
2021/06/22 11:11:09;;;;;;;4.88;3.67;;;24.60;41.20;;;;;;5064752;28;20052;-74
2021/06/22 11:13:52;;;;;;;5.85;3.08;;;24.50;40.50;;;;;;5064699;28;20059;-78
2021/06/22 11:16:18;;;;;;;6.68;4.25;;;24.30;40.30;;;;;;5065057;28;20043;-74
2021/06/22 11:18:54;;;;;;;5.68;3.58;;;24.10;40.20;;;;;;5066324;28;20418;-76
2021/06/22 11:21:32;;;;;;;9.15;3.67;;;24.10;40.10;;;;;;5066025;28;20028;-75
2021/06/22 11:24:13;;;;;;;6.10;3.53;;;24.00;40.20;;;;;;5066150;28;20542;-73
2021/06/22 11:26:45;;;;;;;9.75;3.08;;;24.10;40.30;;;;;;5066307;28;20032;-75
2021/06/22 11:29:13;;;;;;;4.95;3.30;;;24.10;40.30;;;;;;5065736;28;20044;-75
2021/06/22 11:31:44;;;;;;;4.55;3.13;;;24.00;40.10;;;;;;5063424;28;20063;-74
2021/06/22 11:34:11;;;;;;;3.92;2.90;;;23.90;39.80;;;;;;5057747;28;20065;-75
2021/06/22 11:36:51;;;;;;;7.10;3.50;;;24.00;40.00;;;;;;5046271;28;20100;-77
2021/06/22 11:39:19;;;;;;;7.43;4.10;;;24.10;39.90;;;;;;5060507;28;20036;-74
2021/06/22 11:44:44;;;;;;;6.45;3.58;;;24.40;40.10;;;;;;5065874;28;20040;-79
2021/06/22 11:47:31;;;;;;;8.30;3.97;;;24.30;40.10;;;;;;5066236;28;20123;-73
2021/06/22 11:50:17;;;;;;;4.70;3.50;;;24.20;40.20;;;;;;5064423;28;20127;-73
2021/06/22 11:52:46;;;;;;;10.02;3.90;;;24.10;40.10;;;;;;5064929;28;20071;-72
2021/06/22 11:55:18;;;;;;;3.63;3.33;;;24.20;40.50;;;;;;5056920;28;20039;-72
2021/06/22 11:57:58;;;;;;;4.40;3.23;;;24.40;40.50;;;;;;5069838;28;20119;-74
2021/06/22 12:00:32;;;;;;;5.10;3.60;;;24.50;40.70;;;;;;5028566;28;20519;-73
2021/06/22 12:03:06;;;;;;;9.18;3.47;;;24.70;40.70;;;;;;5050539;28;20028;-74
2021/06/22 12:05:34;;;;;;;5.07;3.40;;;24.90;40.70;;;;;;5048311;28;20029;-73
2021/06/22 12:08:10;;;;;;;8.93;3.63;;;24.80;40.10;;;;;;5053627;28;20291;-74
2021/06/22 12:10:49;;;;;;;4.43;3.03;;;24.70;39.80;;;;;;5070100;28;20497;-76
2021/06/22 12:13:29;;;;;;;5.65;3.88;;;24.50;39.80;;;;;;5067673;28;20028;-75
2021/06/22 12:15:56;;;;;;;4.60;3.40;;;24.30;39.80;;;;;;5051965;28;20029;-74
2021/06/22 12:18:27;;;;;;;4.40;3.53;;;24.20;39.80;;;;;;5069676;28;20301;-76
2021/06/22 12:20:53;;;;;;;6.10;3.45;;;24.10;39.50;;;;;;5068902;28;20056;-73
2021/06/22 12:23:19;;;;;;;7.25;3.67;;;24.00;39.60;;;;;;5069366;28;20028;-73
2021/06/22 12:25:54;;;;;;;5.10;3.35;;;23.90;39.50;;;;;;5069311;28;20043;-73
2021/06/22 12:28:24;;;;;;;6.38;3.22;;;24.00;39.70;;;;;;5062588;28;20036;-75
2021/06/22 12:30:56;;;;;;;4.72;3.22;;;24.10;39.90;;;;;;5048259;28;20480;-76
2021/06/22 12:33:28;;;;;;;5.53;3.83;;;24.20;39.60;;;;;;5059704;28;20036;-75
2021/06/22 12:36:00;;;;;;;5.15;3.35;;;24.20;39.50;;;;;;5068013;28;20032;-74
2021/06/22 12:38:28;;;;;;;13.60;3.85;;;24.20;39.70;;;;;;5068688;28;20025;-74
2021/06/22 12:41:00;;;;;;;7.00;3.20;;;24.20;40.30;;;;;;5067834;28;20059;-73
2021/06/22 12:43:41;;;;;;;6.55;3.03;;;24.10;39.50;;;;;;5069290;28;20036;-74
2021/06/22 12:46:07;;;;;;;8.02;3.55;;;24.10;39.50;;;;;;5069130;28;20067;-72
2021/06/22 12:48:34;;;;;;;3.58;3.25;;;24.00;39.50;;;;;;5056379;28;20115;-72
2021/06/22 12:51:00;;;;;;;5.82;3.40;;;23.90;39.30;;;;;;5049678;28;20028;-73
2021/06/22 12:53:28;;;;;;;6.53;3.53;;;23.90;39.30;;;;;;5067709;28;20025;-72
2021/06/22 12:56:15;;;;;;;6.07;3.47;;;23.80;39.20;;;;;;5067571;28;20033;-73
2021/06/22 12:58:55;;;;;;;4.95;3.67;;;23.80;39.00;;;;;;5059557;28;20124;-73